Terminal Aerodrome Forecast
Issued by NWS Binghamton, NY

Home | Current Version | Previous Version | Text Only | Print | Product List | Glossary On
Versions: 1 2 3 4 5 6 7 8 9 10 11 12 13 14 15 16 17 18 19 20 21 22 23
000
FTUS41 KBGM 010800 AAA
TAFAVP
TAF AMD
KAVP 010837Z 0109/0206 VRB03KT P6SM SCT015 BKN035
      TEMPO 0109/0113 3SM BR OVC015
     FM011600 23005KT P6SM BKN045
     FM020000 VRB03KT P6SM SCT045 BKN150=

USA.gov is the U.S. government's official web portal to all federal, state and local government web resources and services.